Time;durP1;ratioP1;P1;durP2;ratioP2;P2;SDS_P1;SDS_P2;PMS_P1;PMS_P2;Temp;Humidity;BMP_temperature;BMP_pressure;BME280_temperature;BME280_humidity;BME280_pressure;Samples;Min_cycle;Max_cycle;Signal;HPM_P1;HPM_P2
2024/03/05 00:01:32;;;;;;;33.40;18.17;;;6.70;81.10;;;;;;5055608;28;20063;-54
2024/03/05 00:03:57;;;;;;;27.27;15.52;;;6.60;81.30;;;;;;5057266;28;20036;-54
2024/03/05 00:06:23;;;;;;;32.40;16.92;;;6.60;81.30;;;;;;5058503;28;20123;-54
2024/03/05 00:08:49;;;;;;;31.83;16.33;;;6.50;81.50;;;;;;5057002;28;20032;-54
2024/03/05 00:11:14;;;;;;;30.92;16.42;;;6.40;81.70;;;;;;5056844;28;20048;-55
2024/03/05 00:13:40;;;;;;;27.95;16.08;;;6.30;82.00;;;;;;5053184;28;20081;-56
2024/03/05 00:16:05;;;;;;;34.08;16.90;;;6.20;82.40;;;;;;5056665;28;20036;-50
2024/03/05 00:18:31;;;;;;;27.13;15.70;;;6.20;82.60;;;;;;5056538;28;20028;-52
2024/03/05 00:20:57;;;;;;;25.45;15.43;;;6.20;82.80;;;;;;5058792;28;20036;-55
2024/03/05 00:23:22;;;;;;;29.70;17.63;;;6.20;83.20;;;;;;5057043;28;20115;-56
2024/03/05 00:25:48;;;;;;;31.17;17.63;;;6.20;83.10;;;;;;5056523;28;20103;-54
2024/03/05 00:28:13;;;;;;;34.00;17.63;;;6.20;82.90;;;;;;5053721;28;20047;-55
2024/03/05 00:30:39;;;;;;;29.25;15.98;;;6.30;83.00;;;;;;5056382;28;20072;-52
2024/03/05 00:33:06;;;;;;;27.80;16.20;;;6.30;82.70;;;;;;5056831;28;20025;-55
2024/03/05 00:35:31;;;;;;;32.45;16.60;;;6.30;82.90;;;;;;5054364;28;20020;-53
2024/03/05 00:37:57;;;;;;;26.88;16.65;;;6.30;83.00;;;;;;5058421;28;20541;-56
2024/03/05 00:40:22;;;;;;;27.45;16.17;;;6.30;82.90;;;;;;5044455;28;20127;-55
2024/03/05 00:42:48;;;;;;;30.80;16.85;;;6.20;83.00;;;;;;5051991;28;20036;-52
2024/03/05 00:45:17;;;;;;;27.67;17.27;;;6.20;83.00;;;;;;5056207;28;20124;-52
2024/03/05 00:47:43;;;;;;;32.25;17.02;;;6.20;83.10;;;;;;5055551;28;20033;-53
2024/03/05 00:50:13;;;;;;;31.15;17.23;;;6.10;83.10;;;;;;5051873;28;20041;-55
2024/03/05 00:52:39;;;;;;;35.72;18.02;;;6.10;83.30;;;;;;5053651;28;20047;-54
2024/03/05 00:55:08;;;;;;;31.83;17.80;;;6.00;83.30;;;;;;5054723;28;20394;-55
2024/03/05 00:57:35;;;;;;;32.75;16.50;;;6.00;83.60;;;;;;5057884;28;20029;-53
2024/03/05 01:00:00;;;;;;;43.60;20.30;;;6.00;83.70;;;;;;5056222;28;20059;-51
2024/03/05 01:02:26;;;;;;;34.47;18.25;;;6.00;84.00;;;;;;5048164;28;20052;-52
2024/03/05 01:04:52;;;;;;;33.75;19.38;;;6.00;84.00;;;;;;5055859;28;20041;-53
2024/03/05 01:07:18;;;;;;;31.92;18.27;;;5.90;84.10;;;;;;5056152;28;20224;-52
2024/03/05 01:09:44;;;;;;;35.17;19.02;;;5.90;84.40;;;;;;5055760;28;20056;-54
2024/03/05 01:12:09;;;;;;;29.67;18.80;;;5.80;84.80;;;;;;5058372;28;20063;-54
2024/03/05 01:14:35;;;;;;;37.22;18.23;;;5.70;85.00;;;;;;5058504;28;20029;-55
2024/03/05 01:17:04;;;;;;;33.63;18.65;;;5.70;85.30;;;;;;5058731;28;20119;-55
2024/03/05 01:19:30;;;;;;;30.85;17.35;;;5.60;85.50;;;;;;5057620;28;20492;-53
2024/03/05 01:21:58;;;;;;;32.47;17.55;;;5.60;85.90;;;;;;5058071;28;20040;-51
2024/03/05 01:24:25;;;;;;;31.52;16.88;;;5.50;86.40;;;;;;5058464;28;20024;-53
2024/03/05 01:26:51;;;;;;;35.90;17.85;;;5.50;86.40;;;;;;5058248;28;20382;-55
2024/03/05 01:29:17;;;;;;;31.60;18.92;;;5.50;86.80;;;;;;5058214;28;20036;-54
2024/03/05 01:31:44;;;;;;;38.70;20.58;;;5.50;87.00;;;;;;5059962;28;20504;-51
2024/03/05 01:34:10;;;;;;;36.95;21.38;;;5.40;87.20;;;;;;5061688;28;20027;-53
2024/03/05 01:36:36;;;;;;;40.22;21.08;;;5.40;87.60;;;;;;5057865;28;20032;-55
2024/03/05 01:39:01;;;;;;;33.50;19.30;;;5.30;87.90;;;;;;5055050;28;20028;-52
2024/03/05 01:41:28;;;;;;;32.85;17.75;;;5.20;88.30;;;;;;5061963;28;20031;-53
2024/03/05 01:43:54;;;;;;;32.30;18.90;;;5.10;88.50;;;;;;5061802;28;20025;-54
2024/03/05 01:46:19;;;;;;;35.35;17.95;;;5.00;88.90;;;;;;5063843;28;20525;-55
2024/03/05 01:48:45;;;;;;;31.23;18.35;;;5.00;89.60;;;;;;5061683;28;20040;-54
2024/03/05 01:51:14;;;;;;;32.83;19.27;;;4.90;89.90;;;;;;5060150;28;20387;-54
2024/03/05 01:53:41;;;;;;;33.85;17.38;;;4.80;90.00;;;;;;5061437;28;21408;-53
2024/03/05 01:56:07;;;;;;;30.80;17.45;;;4.80;90.20;;;;;;5061441;28;20029;-54
2024/03/05 01:58:33;;;;;;;31.98;17.42;;;4.70;90.50;;;;;;5061667;28;20433;-55
2024/03/05 02:01:02;;;;;;;33.60;15.98;;;4.60;90.50;;;;;;5057540;28;20064;-55
2024/03/05 02:03:28;;;;;;;29.88;17.92;;;4.50;90.80;;;;;;5059356;28;20126;-54
2024/03/05 02:05:59;;;;;;;43.20;19.67;;;4.40;91.20;;;;;;5061540;28;20028;-53
2024/03/05 02:08:26;;;;;;;30.98;17.50;;;4.40;91.50;;;;;;5060777;28;20040;-53
2024/03/05 02:10:52;;;;;;;36.03;18.42;;;4.30;92.10;;;;;;5059598;28;20036;-54
2024/03/05 02:13:17;;;;;;;34.10;19.13;;;4.20;92.10;;;;;;5057184;28;20451;-55
2024/03/05 02:15:43;;;;;;;35.60;20.27;;;4.20;92.40;;;;;;5055045;28;20033;-51
2024/03/05 02:18:09;;;;;;;36.15;19.00;;;4.10;92.80;;;;;;5059734;28;20067;-55
2024/03/05 02:20:35;;;;;;;32.53;18.23;;;4.10;92.90;;;;;;5057387;28;20059;-53
2024/03/05 02:23:02;;;;;;;34.30;20.05;;;4.00;93.30;;;;;;5063087;28;20025;-54
2024/03/05 02:25:28;;;;;;;41.65;19.85;;;3.90;93.50;;;;;;5059659;28;20082;-53
2024/03/05 02:27:54;;;;;;;43.47;21.40;;;3.90;93.90;;;;;;5061049;28;20032;-56
2024/03/05 02:30:20;;;;;;;34.00;19.15;;;3.90;94.70;;;;;;5060933;28;20453;-55
2024/03/05 02:32:46;;;;;;;33.17;17.52;;;3.90;94.80;;;;;;5061459;28;20060;-52
2024/03/05 02:35:12;;;;;;;33.88;18.33;;;3.80;94.70;;;;;;5061058;28;20028;-56
2024/03/05 02:37:41;;;;;;;34.03;18.98;;;3.80;95.00;;;;;;5060759;28;20044;-55
2024/03/05 02:40:13;;;;;;;35.35;17.90;;;3.70;95.80;;;;;;5053649;28;20103;-52
2024/03/05 02:42:39;;;;;;;36.47;20.95;;;3.70;96.30;;;;;;5058921;28;20024;-53
2024/03/05 02:45:07;;;;;;;36.22;18.90;;;3.60;96.10;;;;;;5061299;28;20544;-54
2024/03/05 02:47:33;;;;;;;34.53;18.45;;;3.60;96.40;;;;;;5057171;28;20380;-53
2024/03/05 02:49:59;;;;;;;41.08;19.13;;;3.50;96.60;;;;;;5059642;28;20028;-56
2024/03/05 02:52:28;;;;;;;40.97;19.33;;;3.50;97.90;;;;;;5060529;28;20711;-51
2024/03/05 02:54:54;;;;;;;34.70;18.95;;;3.50;97.90;;;;;;5060552;28;20032;-55
2024/03/05 02:57:19;;;;;;;39.17;20.25;;;3.50;97.70;;;;;;5060824;28;20465;-56
2024/03/05 02:59:45;;;;;;;29.40;16.52;;;3.50;97.70;;;;;;5060012;28;20033;-55
2024/03/05 03:02:10;;;;;;;30.05;17.30;;;3.50;98.10;;;;;;5061783;28;20059;-53
2024/03/05 03:04:37;;;;;;;34.88;18.73;;;3.40;98.40;;;;;;5061351;28;20032;-54
2024/03/05 03:07:02;;;;;;;34.67;18.02;;;3.40;98.60;;;;;;5060236;28;20052;-54
2024/03/05 03:09:28;;;;;;;33.17;18.40;;;3.40;98.30;;;;;;5060341;28;20016;-54
2024/03/05 03:11:55;;;;;;;34.10;18.58;;;3.30;98.90;;;;;;5058847;28;20062;-53
2024/03/05 03:14:21;;;;;;;31.45;18.63;;;3.30;99.10;;;;;;5055909;28;20028;-51
2024/03/05 03:16:47;;;;;;;36.15;18.15;;;3.20;99.30;;;;;;5055648;28;20024;-53
2024/03/05 03:19:12;;;;;;;33.90;17.00;;;3.20;99.70;;;;;;5057942;28;20048;-55
2024/03/05 03:21:38;;;;;;;36.20;20.30;;;3.20;99.90;;;;;;5051692;28;20078;-54
2024/03/05 03:24:03;;;;;;;37.25;19.63;;;3.10;99.90;;;;;;5053631;28;20375;-54
2024/03/05 03:26:30;;;;;;;31.25;16.58;;;3.10;99.90;;;;;;5058628;28;20041;-53
2024/03/05 03:28:55;;;;;;;30.17;16.08;;;3.10;99.90;;;;;;5055557;28;20036;-55
2024/03/05 03:31:25;;;;;;;32.28;17.85;;;3.10;99.90;;;;;;5056339;28;20605;-51
2024/03/05 03:33:51;;;;;;;31.65;17.05;;;3.00;99.90;;;;;;5049669;28;20483;-50
2024/03/05 03:36:25;;;;;;;34.97;17.20;;;3.00;99.90;;;;;;5057799;28;20019;-53
2024/03/05 03:38:51;;;;;;;33.85;15.80;;;2.90;99.90;;;;;;5046468;28;20933;-54
2024/03/05 03:41:17;;;;;;;31.30;16.95;;;2.90;99.90;;;;;;5057256;28;20025;-53
2024/03/05 03:43:43;;;;;;;29.42;16.70;;;2.80;99.90;;;;;;5055762;28;20096;-52
2024/03/05 03:46:08;;;;;;;28.48;14.27;;;2.80;99.90;;;;;;5055441;28;20016;-55
2024/03/05 03:48:40;;;;;;;33.20;17.90;;;2.70;99.90;;;;;;5054268;28;20048;-52
2024/03/05 03:51:06;;;;;;;33.95;15.98;;;2.70;99.90;;;;;;5050616;28;20025;-52
2024/03/05 03:53:36;;;;;;;37.60;19.08;;;2.60;99.90;;;;;;5051322;28;20431;-53
2024/03/05 03:56:02;;;;;;;35.47;17.75;;;2.60;99.90;;;;;;5058376;28;20013;-51
2024/03/05 03:58:28;;;;;;;26.92;15.27;;;2.60;99.90;;;;;;5052231;28;20147;-54
2024/03/05 04:00:53;;;;;;;32.63;15.57;;;2.50;99.90;;;;;;5056896;28;20477;-55
2024/03/05 04:03:19;;;;;;;37.40;19.48;;;2.50;99.90;;;;;;5055634;28;20557;-54
2024/03/05 04:05:45;;;;;;;30.45;16.50;;;2.50;99.90;;;;;;5051076;28;20553;-50
2024/03/05 04:08:11;;;;;;;29.55;15.40;;;2.50;99.90;;;;;;5058228;28;20059;-53
2024/03/05 04:10:36;;;;;;;29.55;15.52;;;2.40;99.90;;;;;;5058926;28;20174;-54
2024/03/05 04:13:03;;;;;;;25.38;15.25;;;2.40;99.90;;;;;;5059278;28;20025;-54
2024/03/05 04:15:28;;;;;;;31.10;15.30;;;2.30;99.90;;;;;;5060803;28;20020;-53
2024/03/05 04:17:54;;;;;;;26.20;13.63;;;2.40;99.90;;;;;;5058995;28;20051;-49
2024/03/05 04:20:20;;;;;;;34.13;18.23;;;2.30;99.90;;;;;;5059505;28;20618;-53
2024/03/05 04:22:45;;;;;;;29.83;16.73;;;2.30;99.90;;;;;;5054659;28;20397;-51
2024/03/05 04:25:13;;;;;;;29.77;16.52;;;2.20;99.90;;;;;;5058887;28;20181;-49
2024/03/05 04:27:45;;;;;;;25.33;13.85;;;2.20;99.90;;;;;;5059113;28;20028;-55
2024/03/05 04:30:14;;;;;;;28.02;13.93;;;2.20;99.90;;;;;;5058884;28;20516;-51
2024/03/05 04:32:46;;;;;;;27.55;14.68;;;2.20;99.90;;;;;;5059052;28;20066;-55
2024/03/05 04:35:13;;;;;;;27.02;15.40;;;2.10;99.90;;;;;;5057346;28;20012;-53
2024/03/05 04:37:40;;;;;;;25.45;14.50;;;2.00;99.90;;;;;;5059062;28;20060;-54
2024/03/05 04:40:13;;;;;;;25.75;12.77;;;2.00;99.90;;;;;;5053401;28;20040;-55
2024/03/05 04:42:39;;;;;;;25.88;14.77;;;1.90;99.90;;;;;;5059020;28;20031;-53
2024/03/05 04:45:07;;;;;;;26.88;13.95;;;1.90;99.90;;;;;;5061034;28;20086;-50
2024/03/05 04:47:33;;;;;;;24.15;12.43;;;1.80;99.90;;;;;;5058815;28;20060;-51
2024/03/05 04:49:58;;;;;;;22.98;12.93;;;1.80;99.90;;;;;;5058940;28;20063;-54
2024/03/05 04:52:24;;;;;;;32.33;13.60;;;1.70;99.90;;;;;;5058981;28;20028;-53
2024/03/05 04:54:49;;;;;;;28.02;13.55;;;1.70;99.90;;;;;;5058841;28;20532;-52
2024/03/05 04:57:15;;;;;;;25.20;13.70;;;1.60;99.90;;;;;;5059109;28;20021;-55
2024/03/05 04:59:41;;;;;;;25.67;12.23;;;1.60;99.90;;;;;;5059339;28;20037;-52
2024/03/05 05:02:06;;;;;;;21.48;12.27;;;1.50;99.90;;;;;;5056608;28;20025;-55
2024/03/05 05:04:37;;;;;;;25.48;13.65;;;1.50;99.90;;;;;;5058818;28;20058;-54
2024/03/05 05:07:05;;;;;;;26.52;14.55;;;1.50;99.90;;;;;;5058913;28;20032;-55
2024/03/05 05:09:31;;;;;;;26.75;14.10;;;1.50;99.90;;;;;;5062590;28;20478;-53
2024/03/05 05:11:57;;;;;;;23.58;13.55;;;1.50;99.90;;;;;;5058860;28;20035;-52
2024/03/05 05:14:22;;;;;;;33.90;15.32;;;1.40;99.90;;;;;;5062915;28;20020;-54
2024/03/05 05:16:48;;;;;;;36.20;17.63;;;1.40;99.90;;;;;;5061233;28;20479;-55
2024/03/05 05:19:16;;;;;;;28.98;13.98;;;1.40;99.90;;;;;;5064371;28;20123;-52
2024/03/05 05:21:45;;;;;;;31.30;13.32;;;1.40;99.90;;;;;;5060445;28;20025;-53
2024/03/05 05:24:10;;;;;;;22.38;12.30;;;1.30;99.90;;;;;;5062673;28;20020;-50
2024/03/05 05:26:36;;;;;;;27.65;13.68;;;1.30;99.90;;;;;;5062478;28;20057;-53
2024/03/05 05:29:01;;;;;;;31.90;13.13;;;1.20;99.90;;;;;;5061698;28;20029;-52
2024/03/05 05:31:27;;;;;;;22.00;11.25;;;1.20;99.90;;;;;;5057681;28;20033;-55
2024/03/05 05:33:54;;;;;;;23.40;12.13;;;1.20;99.90;;;;;;5061779;28;20098;-53
2024/03/05 05:36:20;;;;;;;26.10;12.30;;;1.10;99.90;;;;;;5063252;28;20375;-52
2024/03/05 05:38:45;;;;;;;23.67;12.05;;;1.10;99.90;;;;;;5057052;28;20138;-54
2024/03/05 05:41:11;;;;;;;30.23;14.05;;;1.00;99.90;;;;;;5062205;28;20504;-52
2024/03/05 05:43:36;;;;;;;25.52;12.30;;;1.00;99.90;;;;;;5061987;28;20036;-54
2024/03/05 05:46:05;;;;;;;21.75;10.18;;;1.00;99.90;;;;;;5062179;28;20024;-52
2024/03/05 05:48:31;;;;;;;26.10;13.07;;;0.90;99.90;;;;;;5061904;28;20047;-50
2024/03/05 05:51:00;;;;;;;25.58;10.60;;;0.90;99.90;;;;;;5061908;28;20021;-51
2024/03/05 05:53:26;;;;;;;19.67;10.05;;;0.90;99.90;;;;;;5057874;28;20043;-50
2024/03/05 05:55:52;;;;;;;22.60;11.38;;;0.80;99.90;;;;;;5062191;28;20410;-53
2024/03/05 05:58:18;;;;;;;21.70;10.45;;;0.80;99.90;;;;;;5061693;28;20032;-52
2024/03/05 06:00:44;;;;;;;28.90;12.30;;;0.80;99.90;;;;;;5061631;28;20020;-53
2024/03/05 06:03:11;;;;;;;24.83;11.73;;;0.90;99.90;;;;;;5055780;28;20034;-52
2024/03/05 06:05:38;;;;;;;23.67;11.88;;;0.90;99.90;;;;;;5054509;28;20037;-54
2024/03/05 06:08:07;;;;;;;25.52;12.60;;;0.90;99.90;;;;;;5057776;28;20037;-51
2024/03/05 06:10:33;;;;;;;30.83;12.23;;;0.90;99.90;;;;;;5058543;28;20098;-51
2024/03/05 06:12:59;;;;;;;21.98;11.48;;;0.90;99.90;;;;;;5059706;28;20044;-53
2024/03/05 06:15:28;;;;;;;21.77;11.02;;;1.00;99.90;;;;;;5061191;28;20017;-52
2024/03/05 06:17:55;;;;;;;30.00;13.30;;;1.00;99.90;;;;;;5061268;28;20020;-52
2024/03/05 06:20:21;;;;;;;22.00;12.10;;;1.10;99.90;;;;;;5060729;28;20030;-51
2024/03/05 06:22:47;;;;;;;18.77;10.73;;;1.10;99.90;;;;;;5061389;28;20028;-53
2024/03/05 06:25:17;;;;;;;24.25;12.77;;;1.30;99.90;;;;;;5061410;28;20028;-53
2024/03/05 06:27:43;;;;;;;26.75;12.68;;;1.40;99.90;;;;;;5061017;28;20078;-55
2024/03/05 06:30:17;;;;;;;25.25;12.70;;;1.80;99.90;;;;;;5061037;28;20024;-53
2024/03/05 06:32:46;;;;;;;26.77;13.80;;;2.20;99.90;;;;;;5056658;28;20124;-52
2024/03/05 06:35:13;;;;;;;30.65;13.60;;;2.60;99.90;;;;;;5055873;28;20401;-48
2024/03/05 06:37:40;;;;;;;28.02;15.15;;;2.90;99.90;;;;;;5059611;28;20025;-53
2024/03/05 06:40:09;;;;;;;30.05;16.25;;;3.30;99.90;;;;;;5051119;28;20410;-54
2024/03/05 06:42:51;;;;;;;30.83;16.27;;;3.60;99.90;;;;;;5056691;28;20399;-50
2024/03/05 06:45:29;;;;;;;30.70;16.20;;;3.90;99.90;;;;;;5058618;28;20066;-53
2024/03/05 06:48:00;;;;;;;36.97;16.35;;;4.20;99.90;;;;;;5057284;28;20048;-51
2024/03/05 06:50:37;;;;;;;36.42;15.70;;;4.50;99.90;;;;;;5060590;28;20033;-53
2024/03/05 06:58:32;;;;;;;24.98;13.98;;;5.30;99.90;;;;;;5060470;28;20027;-53
2024/03/05 07:00:58;;;;;;;26.35;13.88;;;5.60;99.90;;;;;;5060796;28;20469;-51
2024/03/05 07:03:24;;;;;;;28.83;14.95;;;5.80;97.40;;;;;;5059979;28;20020;-49
2024/03/05 07:05:49;;;;;;;21.40;13.57;;;6.00;98.60;;;;;;5060443;28;20396;-53
2024/03/05 07:08:16;;;;;;;26.25;13.75;;;6.30;95.60;;;;;;5062314;28;20493;-46
2024/03/05 07:10:42;;;;;;;25.90;14.63;;;6.50;96.50;;;;;;5057855;28;20603;-45
2024/03/05 07:13:09;;;;;;;30.42;15.30;;;6.70;96.10;;;;;;5055506;28;20090;-47
2024/03/05 07:15:35;;;;;;;23.50;12.80;;;6.80;93.70;;;;;;5059640;28;20450;-46
2024/03/05 07:18:01;;;;;;;25.73;14.85;;;6.90;93.70;;;;;;5060615;28;20021;-46
2024/03/05 07:20:27;;;;;;;24.30;13.43;;;7.00;90.70;;;;;;5052497;28;20053;-46
2024/03/05 07:22:54;;;;;;;21.10;13.82;;;7.10;91.20;;;;;;5052641;28;20078;-47
2024/03/05 07:25:21;;;;;;;24.23;14.90;;;7.10;89.20;;;;;;5060053;28;20107;-49
2024/03/05 07:27:48;;;;;;;21.83;12.40;;;7.10;89.70;;;;;;5059200;28;20020;-46
2024/03/05 07:30:18;;;;;;;30.55;13.23;;;7.00;86.90;;;;;;5061043;28;20024;-46
2024/03/05 07:32:47;;;;;;;25.55;13.50;;;7.10;88.40;;;;;;5053573;28;20023;-47
2024/03/05 07:35:15;;;;;;;28.00;14.02;;;7.00;84.80;;;;;;5058239;28;20021;-49
2024/03/05 07:37:44;;;;;;;24.20;14.10;;;7.20;86.50;;;;;;5059250;28;20909;-46
2024/03/05 07:40:16;;;;;;;21.38;12.40;;;7.30;84.50;;;;;;5056238;28;20033;-46
2024/03/05 07:42:51;;;;;;;19.77;12.18;;;7.50;84.80;;;;;;5059080;28;20068;-45
2024/03/05 07:45:17;;;;;;;26.08;11.75;;;7.70;85.40;;;;;;5061373;28;20389;-48
2024/03/05 07:47:44;;;;;;;25.85;13.05;;;7.70;84.50;;;;;;5059533;28;20025;-46
2024/03/05 07:50:12;;;;;;;28.40;13.23;;;7.60;82.10;;;;;;5059211;28;20540;-47
2024/03/05 07:52:47;;;;;;;22.13;12.23;;;7.80;81.40;;;;;;5059141;28;20074;-46
2024/03/05 07:55:18;;;;;;;32.22;14.77;;;7.80;81.30;;;;;;5054950;28;20024;-43
2024/03/05 07:57:44;;;;;;;18.67;12.90;;;7.90;82.10;;;;;;5054037;28;20077;-43
2024/03/05 08:00:14;;;;;;;24.00;13.73;;;7.70;78.70;;;;;;5051227;28;20060;-43
2024/03/05 08:02:42;;;;;;;25.27;13.27;;;7.80;79.30;;;;;;5054891;28;20601;-44
2024/03/05 08:05:08;;;;;;;21.75;13.43;;;7.60;78.80;;;;;;5055061;28;20394;-43
2024/03/05 08:07:35;;;;;;;22.45;13.80;;;7.50;79.20;;;;;;5054807;28;20021;-44
2024/03/05 08:10:07;;;;;;;23.13;13.07;;;7.50;78.30;;;;;;5055784;28;20289;-44
2024/03/05 08:12:35;;;;;;;26.92;13.77;;;7.60;78.00;;;;;;5047233;28;20040;-43
2024/03/05 08:15:01;;;;;;;22.50;14.32;;;7.50;78.30;;;;;;5056926;28;20111;-43
2024/03/05 08:17:26;;;;;;;22.38;12.98;;;7.60;79.70;;;;;;5052557;28;20165;-43
2024/03/05 08:19:52;;;;;;;20.13;11.38;;;7.60;78.80;;;;;;5054533;28;20134;-43
2024/03/05 08:22:20;;;;;;;23.25;13.25;;;7.80;80.40;;;;;;5054861;28;20028;-48
2024/03/05 08:24:46;;;;;;;23.58;13.70;;;7.90;80.20;;;;;;5050389;28;20036;-44
2024/03/05 08:27:11;;;;;;;31.70;15.38;;;7.90;77.60;;;;;;5053543;28;20020;-45
2024/03/05 08:29:39;;;;;;;24.88;14.05;;;7.80;76.60;;;;;;5051837;28;20083;-45
2024/03/05 08:32:06;;;;;;;23.42;13.88;;;7.60;76.80;;;;;;5060569;28;20024;-44
2024/03/05 08:34:32;;;;;;;24.92;13.85;;;7.60;78.00;;;;;;5052740;28;20452;-44
2024/03/05 08:36:57;;;;;;;25.35;14.63;;;7.70;78.20;;;;;;5051351;28;20503;-48
2024/03/05 08:39:23;;;;;;;21.65;11.73;;;7.50;77.50;;;;;;5054393;28;20054;-45
2024/03/05 08:41:48;;;;;;;20.75;12.07;;;7.60;77.90;;;;;;5054350;28;20036;-44
2024/03/05 08:44:15;;;;;;;20.70;12.27;;;7.80;78.70;;;;;;5053580;28;20119;-45
2024/03/05 08:46:41;;;;;;;24.08;13.32;;;8.10;79.60;;;;;;5057652;28;20074;-46
2024/03/05 08:49:06;;;;;;;16.67;11.65;;;8.30;79.30;;;;;;5052219;28;20032;-43
2024/03/05 08:51:37;;;;;;;19.45;12.43;;;8.40;78.50;;;;;;5054506;28;20086;-43
2024/03/05 08:54:08;;;;;;;21.63;12.02;;;8.40;77.80;;;;;;5054711;28;20078;-43
2024/03/05 08:56:37;;;;;;;19.52;10.52;;;8.60;76.50;;;;;;5050104;28;20393;-44
2024/03/05 08:59:06;;;;;;;20.52;11.88;;;8.80;78.20;;;;;;5051137;28;20502;-44
2024/03/05 09:01:34;;;;;;;24.92;12.57;;;8.80;77.90;;;;;;5053913;28;20028;-43
2024/03/05 09:04:01;;;;;;;23.15;12.45;;;8.70;76.20;;;;;;5053838;28;20112;-48
2024/03/05 09:06:27;;;;;;;21.85;12.52;;;8.40;75.60;;;;;;5049252;28;20609;-45
2024/03/05 09:08:52;;;;;;;23.02;12.13;;;8.20;74.50;;;;;;5058460;28;20086;-44
2024/03/05 09:11:18;;;;;;;18.27;12.95;;;8.00;75.10;;;;;;5057941;28;20461;-44
2024/03/05 09:13:46;;;;;;;22.40;13.00;;;7.80;74.60;;;;;;5056257;28;20484;-44
2024/03/05 09:16:12;;;;;;;25.23;13.75;;;7.70;74.70;;;;;;5052160;28;20504;-46
2024/03/05 09:18:38;;;;;;;30.48;15.13;;;7.40;74.60;;;;;;5054877;28;20236;-43
2024/03/05 09:21:04;;;;;;;25.55;13.85;;;7.00;74.90;;;;;;5057556;28;20057;-47
2024/03/05 09:23:29;;;;;;;20.75;12.93;;;7.10;76.20;;;;;;5049552;28;20151;-47
2024/03/05 09:25:55;;;;;;;19.58;11.35;;;7.20;76.90;;;;;;5053462;28;20038;-47
2024/03/05 09:28:21;;;;;;;22.27;12.02;;;7.40;77.40;;;;;;5055733;28;20056;-46
2024/03/05 09:30:47;;;;;;;21.20;11.60;;;7.70;77.30;;;;;;5051663;28;20506;-47
2024/03/05 09:33:13;;;;;;;22.75;11.98;;;7.80;77.40;;;;;;5051024;28;20032;-46
2024/03/05 09:35:39;;;;;;;19.10;11.93;;;8.20;77.80;;;;;;5057035;28;20051;-43
2024/03/05 09:38:04;;;;;;;15.40;10.70;;;8.50;75.30;;;;;;5053790;28;20020;-44
2024/03/05 09:40:30;;;;;;;18.67;10.55;;;8.60;73.50;;;;;;5050704;28;20149;-43
2024/03/05 09:42:59;;;;;;;17.08;11.27;;;8.60;72.90;;;;;;5053599;28;20020;-45
2024/03/05 09:45:30;;;;;;;16.80;10.10;;;8.70;72.50;;;;;;5056368;28;20107;-43
2024/03/05 09:47:58;;;;;;;14.00;10.00;;;8.70;71.20;;;;;;5051435;28;20033;-45
2024/03/05 09:50:24;;;;;;;17.10;9.52;;;8.70;72.10;;;;;;5056339;28;20013;-46
2024/03/05 09:52:50;;;;;;;17.92;9.85;;;8.90;70.90;;;;;;5053859;28;20024;-44
2024/03/05 09:55:17;;;;;;;15.57;9.27;;;9.10;71.70;;;;;;5057044;28;20039;-43
2024/03/05 09:57:46;;;;;;;14.27;9.20;;;9.20;70.20;;;;;;5057645;28;20036;-43
2024/03/05 10:00:17;;;;;;;22.80;9.45;;;9.30;69.70;;;;;;5057769;28;20077;-45
2024/03/05 10:02:50;;;;;;;15.68;8.90;;;9.50;68.40;;;;;;5057306;28;20478;-43
2024/03/05 10:05:19;;;;;;;19.33;9.13;;;9.60;68.40;;;;;;5059642;28;20017;-45
2024/03/05 10:07:47;;;;;;;12.18;7.97;;;9.60;66.50;;;;;;5054138;28;20229;-45
2024/03/05 10:10:16;;;;;;;17.90;9.77;;;9.80;67.10;;;;;;5052535;28;20061;-44
2024/03/05 10:12:42;;;;;;;12.50;9.10;;;9.90;64.20;;;;;;5057326;28;20313;-44
2024/03/05 10:15:20;;;;;;;12.40;8.45;;;9.70;62.10;;;;;;5056128;28;20593;-44
2024/03/05 10:17:50;;;;;;;17.60;8.57;;;9.50;63.20;;;;;;5059967;28;20104;-46
2024/03/05 10:20:31;;;;;;;14.82;8.85;;;9.00;62.90;;;;;;5056902;28;20131;-44
2024/03/05 10:22:58;;;;;;;21.05;9.25;;;8.60;64.10;;;;;;5061231;28;20500;-47
2024/03/05 10:25:25;;;;;;;21.40;9.05;;;8.70;65.00;;;;;;5060869;28;20020;-43
2024/03/05 10:27:52;;;;;;;13.52;7.90;;;8.60;64.50;;;;;;5059481;28;20060;-44
2024/03/05 10:30:31;;;;;;;19.77;8.20;;;8.30;63.40;;;;;;5059460;28;20145;-43
2024/03/05 10:32:59;;;;;;;17.67;7.95;;;8.10;64.10;;;;;;5060072;28;20029;-43
2024/03/05 10:35:25;;;;;;;19.98;9.57;;;7.90;64.70;;;;;;5061159;28;20473;-42
2024/03/05 10:38:07;;;;;;;14.30;8.25;;;7.80;65.50;;;;;;5060561;28;20025;-47
2024/03/05 10:40:34;;;;;;;20.58;8.75;;;7.70;65.70;;;;;;5059400;28;20054;-43
2024/03/05 10:43:04;;;;;;;19.23;8.93;;;7.60;65.10;;;;;;5060783;28;20028;-45
2024/03/05 10:45:32;;;;;;;23.27;8.60;;;7.60;65.40;;;;;;5060415;28;20429;-46
2024/03/05 10:48:00;;;;;;;18.10;8.38;;;7.60;65.70;;;;;;5060536;28;20094;-45
2024/03/05 10:50:26;;;;;;;19.27;8.20;;;7.80;65.90;;;;;;5060718;28;20267;-46
2024/03/05 10:52:54;;;;;;;15.23;9.13;;;8.00;65.90;;;;;;5060317;28;20104;-46
2024/03/05 10:55:22;;;;;;;15.55;8.82;;;8.20;66.10;;;;;;5060455;28;20033;-47
2024/03/05 11:00:37;;;;;;;17.05;8.32;;;8.20;65.50;;;;;;5060704;28;20457;-45
2024/03/05 11:03:09;;;;;;;21.58;8.10;;;8.00;65.40;;;;;;5058980;28;20123;-47
2024/03/05 11:05:51;;;;;;;19.38;8.27;;;7.70;65.30;;;;;;5059063;28;20145;-46
2024/03/05 11:08:18;;;;;;;21.05;8.85;;;7.30;65.40;;;;;;5060468;28;20301;-46
2024/03/05 11:10:49;;;;;;;14.82;7.43;;;7.10;66.20;;;;;;5057764;28;20052;-46
2024/03/05 11:13:16;;;;;;;19.40;8.75;;;7.00;66.80;;;;;;5058610;28;20086;-45
2024/03/05 11:15:42;;;;;;;17.33;8.18;;;6.90;66.70;;;;;;5058077;28;20042;-49
2024/03/05 11:18:31;;;;;;;17.02;7.78;;;6.90;66.20;;;;;;5059772;28;20024;-46
2024/03/05 11:21:00;;;;;;;16.50;8.15;;;6.90;66.20;;;;;;5055787;28;20032;-46
2024/03/05 11:23:29;;;;;;;16.27;6.72;;;7.00;65.40;;;;;;5055199;28;20029;-46
2024/03/05 11:26:00;;;;;;;13.95;7.53;;;7.20;65.50;;;;;;5053138;28;20027;-48
2024/03/05 11:28:26;;;;;;;17.88;8.10;;;7.40;65.00;;;;;;5059969;28;20028;-48
2024/03/05 11:31:17;;;;;;;15.02;7.90;;;7.60;64.90;;;;;;5055368;28;20186;-50
2024/03/05 11:34:03;;;;;;;17.83;7.40;;;7.70;63.70;;;;;;5059168;28;20029;-48
2024/03/05 11:36:36;;;;;;;22.02;8.30;;;7.70;61.40;;;;;;5056508;28;20025;-50
2024/03/05 11:39:08;;;;;;;14.88;8.13;;;7.60;61.40;;;;;;5053207;28;20040;-46
2024/03/05 11:41:36;;;;;;;20.33;7.63;;;7.60;62.30;;;;;;5059518;28;20484;-46
2024/03/05 11:44:05;;;;;;;13.05;7.80;;;7.60;62.40;;;;;;5059631;28;20103;-46
2024/03/05 11:46:46;;;;;;;15.40;7.47;;;7.50;61.70;;;;;;5059173;28;20028;-46
2024/03/05 11:49:16;;;;;;;13.23;7.05;;;7.60;62.00;;;;;;5059424;28;20051;-46
2024/03/05 11:51:44;;;;;;;16.77;8.13;;;7.70;62.40;;;;;;5059427;28;20028;-46
2024/03/05 11:54:15;;;;;;;14.38;7.47;;;7.90;62.00;;;;;;5055006;28;20020;-47
2024/03/05 11:56:43;;;;;;;19.45;8.75;;;8.00;62.10;;;;;;5054981;28;20235;-51
2024/03/05 11:59:09;;;;;;;14.32;6.78;;;8.00;60.70;;;;;;5050920;28;20033;-46
2024/03/05 12:01:35;;;;;;;14.90;6.43;;;8.00;59.90;;;;;;5055569;28;20353;-45
2024/03/05 12:04:09;;;;;;;13.48;7.88;;;8.10;60.00;;;;;;5054818;28;20108;-44
2024/03/05 12:06:39;;;;;;;14.32;7.60;;;8.10;59.20;;;;;;5056278;28;20017;-45
2024/03/05 12:09:18;;;;;;;16.20;8.48;;;8.20;58.40;;;;;;5052123;28;20024;-46
2024/03/05 12:12:18;;;;;;;20.70;8.32;;;8.30;58.80;;;;;;5056925;28;20084;-45
2024/03/05 12:14:54;;;;;;;13.93;7.03;;;8.20;58.60;;;;;;5065018;28;20044;-46
2024/03/05 12:17:21;;;;;;;12.50;6.90;;;8.20;59.70;;;;;;5052948;28;20371;-47
2024/03/05 12:20:04;;;;;;;19.10;8.60;;;8.20;60.00;;;;;;5054998;28;20028;-48
2024/03/05 12:22:30;;;;;;;19.02;8.18;;;8.10;59.60;;;;;;5055391;28;20036;-49
2024/03/05 12:24:55;;;;;;;15.20;8.30;;;8.10;59.60;;;;;;5054209;28;20105;-47
2024/03/05 12:27:22;;;;;;;16.08;9.30;;;8.00;59.40;;;;;;5056047;28;20028;-46
2024/03/05 12:29:50;;;;;;;18.40;8.30;;;8.00;58.90;;;;;;5057269;28;20482;-45
2024/03/05 12:32:18;;;;;;;12.85;7.55;;;7.90;58.90;;;;;;5058827;28;20083;-47
2024/03/05 12:34:43;;;;;;;13.82;7.75;;;7.80;59.10;;;;;;5058465;28;20136;-48
2024/03/05 12:37:12;;;;;;;13.13;6.70;;;7.80;58.90;;;;;;5060711;28;20029;-46
2024/03/05 12:39:41;;;;;;;15.15;7.22;;;7.90;58.90;;;;;;5050243;28;20069;-46
2024/03/05 12:42:09;;;;;;;10.75;6.75;;;7.90;58.80;;;;;;5056260;28;20066;-47
2024/03/05 12:44:35;;;;;;;14.82;7.40;;;8.00;58.90;;;;;;5058515;28;20055;-48
2024/03/05 12:47:10;;;;;;;11.18;6.30;;;8.10;57.90;;;;;;5058902;28;20063;-46
2024/03/05 12:49:38;;;;;;;12.65;7.43;;;8.30;54.70;;;;;;5054417;28;20044;-47